createdAt,value
2019-02-15T00:00:03.932Z,18.269653
2019-02-15T00:00:11.806Z,18.269653
2019-02-15T00:00:19.716Z,18.269653
2019-02-15T00:00:27.636Z,18.269653
2019-02-15T00:00:35.505Z,18.289795
2019-02-15T00:00:43.437Z,18.289795
2019-02-15T00:00:51.326Z,18.289795
2019-02-15T00:00:59.218Z,18.299866
2019-02-15T00:01:07.166Z,18.289795
2019-02-15T00:01:15.077Z,18.289795
2019-02-15T00:01:23.949Z,18.269653
2019-02-15T00:01:31.825Z,18.289795
2019-02-15T00:01:40.719Z,18.269653
2019-02-15T00:01:48.642Z,18.289795
2019-02-15T00:01:56.533Z,18.269653
2019-02-15T00:02:05.398Z,18.289795
2019-02-15T00:02:13.303Z,18.269653
2019-02-15T00:02:21.180Z,18.289795
2019-02-15T00:02:29.095Z,18.269653
2019-02-15T00:02:37.008Z,18.269653
2019-02-15T00:02:44.889Z,18.269653
2019-02-15T00:02:52.787Z,18.289795
2019-02-15T00:03:00.672Z,18.269653
2019-02-15T00:03:08.565Z,18.289795
2019-02-15T00:03:16.440Z,18.289795
2019-02-15T00:03:25.304Z,18.269653
2019-02-15T00:03:33.201Z,18.269653
2019-02-15T00:03:41.070Z,18.269653
2019-02-15T00:03:48.974Z,18.269653
2019-02-15T00:03:56.841Z,18.289795
2019-02-15T00:04:04.718Z,18.289795
2019-02-15T00:04:12.648Z,18.269653
2019-02-15T00:04:21.529Z,18.269653
2019-02-15T00:04:29.437Z,18.289795
2019-02-15T00:04:37.331Z,18.259583
2019-02-15T00:04:45.215Z,18.269653
2019-02-15T00:04:53.088Z,18.289795
2019-02-15T00:05:00.997Z,18.269653
2019-02-15T00:05:08.913Z,18.269653
2019-02-15T00:05:16.825Z,18.269653
2019-02-15T00:05:24.706Z,18.269653
2019-02-15T00:05:32.581Z,18.269653
2019-02-15T00:05:40.468Z,18.289795
2019-02-15T00:05:48.336Z,18.269653
2019-02-15T00:05:56.247Z,18.289795
2019-02-15T00:06:04.122Z,18.269653
2019-02-15T00:06:12.020Z,18.289795
2019-02-15T00:06:19.914Z,18.269653
2019-02-15T00:06:27.791Z,18.269653
2019-02-15T00:06:35.674Z,18.259583
2019-02-15T00:06:43.575Z,18.269653
2019-02-15T00:06:51.464Z,18.289795
2019-02-15T00:07:01.317Z,18.269653
2019-02-15T00:07:09.200Z,18.269653
2019-02-15T00:07:17.078Z,18.269653
2019-02-15T00:07:24.946Z,18.269653
2019-02-15T00:07:32.824Z,18.269653
2019-02-15T00:07:40.702Z,18.269653
2019-02-15T00:07:48.614Z,18.269653
2019-02-15T00:07:56.506Z,18.269653
2019-02-15T00:08:04.437Z,18.269653
2019-02-15T00:08:12.356Z,18.289795
2019-02-15T00:08:20.253Z,18.269653
2019-02-15T00:08:28.128Z,18.269653
2019-02-15T00:08:36.992Z,18.269653
2019-02-15T00:08:44.882Z,18.289795
2019-02-15T00:08:52.776Z,18.269653
2019-02-15T00:09:00.653Z,18.269653
2019-02-15T00:09:08.526Z,18.269653
2019-02-15T00:09:17.410Z,18.259583
2019-02-15T00:09:25.288Z,18.269653
2019-02-15T00:09:33.204Z,18.269653
2019-02-15T00:09:41.084Z,18.269653
2019-02-15T00:09:48.945Z,18.269653
2019-02-15T00:09:56.821Z,18.259583
2019-02-15T00:10:04.743Z,18.289795
2019-02-15T00:10:12.693Z,18.259583
2019-02-15T00:10:20.527Z,18.269653
2019-02-15T00:10:28.399Z,18.289795
2019-02-15T00:10:36.295Z,18.269653
2019-02-15T00:10:44.184Z,18.269653
2019-02-15T00:10:53.052Z,18.269653
2019-02-15T00:11:01.003Z,18.269653
2019-02-15T00:11:08.853Z,18.269653
2019-02-15T00:11:16.769Z,18.269653
2019-02-15T00:11:24.674Z,18.259583
2019-02-15T00:11:32.563Z,18.269653
2019-02-15T00:11:40.425Z,18.259583
2019-02-15T00:11:48.312Z,18.269653
2019-02-15T00:11:56.179Z,18.269653
2019-02-15T00:12:04.078Z,18.259583
2019-02-15T00:12:11.977Z,18.269653
2019-02-15T00:12:19.850Z,18.269653
2019-02-15T00:12:28.725Z,18.269653
2019-02-15T00:12:36.601Z,18.259583
2019-02-15T00:12:44.488Z,18.259583
2019-02-15T00:12:52.375Z,18.269653
2019-02-15T00:13:00.225Z,18.259583
2019-02-15T00:13:13.413Z,18.259583
2019-02-15T00:13:19.983Z,18.269653
2019-02-15T00:13:27.951Z,18.259583
2019-02-15T00:13:35.829Z,18.259583
2019-02-15T00:13:43.693Z,18.259583
2019-02-15T00:13:51.556Z,18.259583
2019-02-15T00:13:59.447Z,18.269653
2019-02-15T00:14:07.343Z,18.269653
2019-02-15T00:14:15.242Z,18.259583
2019-02-15T00:14:23.130Z,18.259583
2019-02-15T00:14:31.007Z,18.259583
2019-02-15T00:14:38.902Z,18.259583
2019-02-15T00:14:46.804Z,18.259583
2019-02-15T00:14:54.682Z,18.259583
2019-02-15T00:15:02.553Z,18.259583
2019-02-15T00:15:10.435Z,18.269653
2019-02-15T00:15:18.319Z,18.259583
2019-02-15T00:15:26.201Z,18.259583
2019-02-15T00:15:34.097Z,18.259583
2019-02-15T00:15:42.039Z,18.259583
2019-02-15T00:15:49.923Z,18.259583
2019-02-15T00:15:57.854Z,18.259583
2019-02-15T00:16:06.711Z,18.259583
2019-02-15T00:16:14.609Z,18.259583
2019-02-15T00:16:22.491Z,18.259583
2019-02-15T00:16:30.407Z,18.259583
2019-02-15T00:16:38.279Z,18.259583
2019-02-15T00:16:46.224Z,18.259583
2019-02-15T00:16:54.125Z,18.259583
2019-02-15T00:17:02.786Z,18.249512
2019-02-15T00:17:10.686Z,18.259583
2019-02-15T00:17:18.585Z,18.269653
2019-02-15T00:17:26.448Z,18.259583
2019-02-15T00:17:34.326Z,18.269653
2019-02-15T00:17:42.194Z,18.269653
2019-02-15T00:17:50.109Z,18.269653
2019-02-15T00:17:57.996Z,18.259583
2019-02-15T00:18:05.891Z,18.249512
2019-02-15T00:18:13.785Z,18.259583
2019-02-15T00:18:21.669Z,18.249512
2019-02-15T00:18:30.533Z,18.249512
2019-02-15T00:18:39.418Z,18.259583
2019-02-15T00:18:47.339Z,18.259583
2019-02-15T00:18:56.215Z,18.249512
2019-02-15T00:19:04.162Z,18.259583
2019-02-15T00:19:12.057Z,18.259583
2019-02-15T00:19:19.979Z,18.259583
2019-02-15T00:19:27.880Z,18.259583
2019-02-15T00:19:35.780Z,18.259583
2019-02-15T00:19:43.647Z,18.249512
2019-02-15T00:19:52.539Z,18.259583
2019-02-15T00:20:00.424Z,18.259583
2019-02-15T00:20:08.317Z,18.249512
2019-02-15T00:20:16.217Z,18.249512
2019-02-15T00:20:24.074Z,18.259583
2019-02-15T00:20:31.950Z,18.259583
2019-02-15T00:20:39.852Z,18.249512
2019-02-15T00:20:47.745Z,18.249512
2019-02-15T00:20:55.619Z,18.259583
2019-02-15T00:21:04.503Z,18.259583
2019-02-15T00:21:12.379Z,18.259583
2019-02-15T00:21:20.271Z,18.259583
2019-02-15T00:21:28.154Z,18.259583
2019-02-15T00:21:36.021Z,18.249512
2019-02-15T00:21:43.904Z,18.259583
2019-02-15T00:21:51.775Z,18.259583
2019-02-15T00:21:59.671Z,18.259583
2019-02-15T00:22:07.567Z,18.249512
2019-02-15T00:22:15.494Z,18.249512
2019-02-15T00:22:23.393Z,18.259583
2019-02-15T00:22:31.283Z,18.249512
2019-02-15T00:22:39.173Z,18.259583
2019-02-15T00:22:47.076Z,18.259583
2019-02-15T00:22:54.965Z,18.249512
2019-02-15T00:23:02.852Z,18.259583
2019-02-15T00:23:10.717Z,18.249512
2019-02-15T00:23:18.666Z,18.249512
2019-02-15T00:23:26.549Z,18.259583
2019-02-15T00:23:34.437Z,18.259583
2019-02-15T00:23:42.315Z,18.259583
2019-02-15T00:23:50.209Z,18.259583
2019-02-15T00:23:58.077Z,18.259583
2019-02-15T00:24:06.095Z,18.259583
2019-02-15T00:24:14.966Z,18.249512
2019-02-15T00:24:22.845Z,18.259583
2019-02-15T00:24:30.717Z,18.259583
2019-02-15T00:24:38.643Z,18.259583
2019-02-15T00:24:46.523Z,18.259583
2019-02-15T00:24:54.410Z,18.249512
2019-02-15T00:25:02.279Z,18.249512
2019-02-15T00:25:10.147Z,18.249512
2019-02-15T00:25:18.078Z,18.249512
2019-02-15T00:25:25.964Z,18.249512
2019-02-15T00:25:33.902Z,18.259583
2019-02-15T00:25:42.784Z,18.249512
2019-02-15T00:25:50.679Z,18.249512
2019-02-15T00:25:58.577Z,18.249512
2019-02-15T00:26:06.485Z,18.259583
2019-02-15T00:26:16.387Z,18.259583
2019-02-15T00:26:23.259Z,18.249512
2019-02-15T00:26:31.186Z,18.22937
2019-02-15T00:26:39.064Z,18.249512
2019-02-15T00:26:46.946Z,18.249512
2019-02-15T00:26:54.801Z,18.259583
2019-02-15T00:27:02.733Z,18.249512
2019-02-15T00:27:10.627Z,18.249512
2019-02-15T00:27:18.491Z,18.249512
2019-02-15T00:27:26.359Z,18.249512
2019-02-15T00:27:34.243Z,18.249512
2019-02-15T00:27:42.116Z,18.259583
2019-02-15T00:27:49.990Z,18.249512
2019-02-15T00:27:57.874Z,18.249512
2019-02-15T00:28:05.794Z,18.269653
2019-02-15T00:28:13.666Z,18.249512
2019-02-15T00:28:21.534Z,18.249512
2019-02-15T00:28:29.427Z,18.249512
2019-02-15T00:28:38.313Z,18.22937
2019-02-15T00:28:46.227Z,18.249512
2019-02-15T00:28:54.115Z,18.249512
2019-02-15T00:29:01.971Z,18.249512
2019-02-15T00:29:09.889Z,18.249512
2019-02-15T00:29:17.752Z,18.249512
2019-02-15T00:29:26.619Z,18.259583
2019-02-15T00:29:34.499Z,18.249512
2019-02-15T00:29:42.454Z,18.249512
2019-02-15T00:29:51.322Z,18.249512
2019-02-15T00:29:59.187Z,18.249512
2019-02-15T00:30:08.083Z,18.22937
2019-02-15T00:30:15.957Z,18.259583
2019-02-15T00:30:24.850Z,18.249512
2019-02-15T00:30:32.705Z,18.249512
2019-02-15T00:30:40.577Z,18.249512
2019-02-15T00:30:48.475Z,18.22937
2019-02-15T00:30:56.356Z,18.249512
2019-02-15T00:31:04.265Z,18.249512
2019-02-15T00:31:12.173Z,18.249512
2019-02-15T00:31:20.075Z,18.249512
2019-02-15T00:31:27.967Z,18.22937
2019-02-15T00:31:36.860Z,18.259583
2019-02-15T00:31:44.743Z,18.249512
2019-02-15T00:31:52.621Z,18.249512
2019-02-15T00:32:00.519Z,18.22937
2019-02-15T00:32:09.345Z,18.22937
2019-02-15T00:32:17.229Z,18.22937
2019-02-15T00:32:25.129Z,18.22937
2019-02-15T00:32:32.998Z,18.249512
2019-02-15T00:32:40.855Z,18.259583
2019-02-15T00:32:48.753Z,18.249512
2019-02-15T00:32:56.646Z,18.249512
2019-02-15T00:33:04.546Z,18.249512
2019-02-15T00:33:12.475Z,18.22937
2019-02-15T00:33:20.456Z,18.22937
2019-02-15T00:33:28.357Z,18.249512
2019-02-15T00:33:36.207Z,18.249512
2019-02-15T00:33:44.085Z,18.249512
2019-02-15T00:33:51.975Z,18.22937
2019-02-15T00:34:00.901Z,18.249512
2019-02-15T00:34:08.754Z,18.249512
2019-02-15T00:34:16.643Z,18.22937
2019-02-15T00:34:25.537Z,18.22937
2019-02-15T00:34:33.428Z,18.22937
2019-02-15T00:34:41.297Z,18.249512
2019-02-15T00:34:49.159Z,18.249512
2019-02-15T00:34:57.070Z,18.249512
2019-02-15T00:35:04.949Z,18.249512
2019-02-15T00:35:12.859Z,18.22937
2019-02-15T00:35:20.765Z,18.22937
2019-02-15T00:35:29.644Z,18.249512
2019-02-15T00:35:37.521Z,18.22937
2019-02-15T00:35:45.419Z,18.22937
2019-02-15T00:35:54.295Z,18.22937
2019-02-15T00:36:02.171Z,18.22937
2019-02-15T00:36:10.057Z,18.22937
2019-02-15T00:36:17.951Z,18.249512
2019-02-15T00:36:25.809Z,18.22937
2019-02-15T00:36:33.721Z,18.249512
2019-02-15T00:36:41.593Z,18.22937
2019-02-15T00:36:50.463Z,18.22937
2019-02-15T00:36:59.321Z,18.22937
2019-02-15T00:37:07.204Z,18.249512
2019-02-15T00:37:15.114Z,18.22937
2019-02-15T00:37:22.990Z,18.22937
2019-02-15T00:37:30.859Z,18.249512
2019-02-15T00:37:38.729Z,18.22937
2019-02-15T00:37:46.646Z,18.22937
2019-02-15T00:37:54.561Z,18.249512
2019-02-15T00:38:02.429Z,18.249512
2019-02-15T00:38:10.311Z,18.22937
2019-02-15T00:38:18.207Z,18.249512
2019-02-15T00:38:26.087Z,18.249512
2019-02-15T00:38:33.977Z,18.22937
2019-02-15T00:38:41.855Z,18.22937
2019-02-15T00:38:49.752Z,18.22937
2019-02-15T00:38:57.629Z,18.22937
2019-02-15T00:39:05.521Z,18.22937
2019-02-15T00:39:13.397Z,18.249512
2019-02-15T00:39:21.286Z,18.249512
2019-02-15T00:39:29.191Z,18.22937
2019-02-15T00:39:38.665Z,18.249512
2019-02-15T00:39:46.530Z,18.249512
2019-02-15T00:39:54.431Z,18.22937
2019-02-15T00:40:03.321Z,18.22937
2019-02-15T00:40:11.231Z,18.22937
2019-02-15T00:40:19.107Z,18.22937
2019-02-15T00:40:26.997Z,18.22937
2019-02-15T00:40:34.865Z,18.22937
2019-02-15T00:40:42.730Z,18.22937
2019-02-15T00:40:50.617Z,18.22937
2019-02-15T00:40:58.508Z,18.22937
2019-02-15T00:41:06.409Z,18.249512
2019-02-15T00:41:14.285Z,18.219299
2019-02-15T00:41:22.193Z,18.219299
2019-02-15T00:41:30.054Z,18.22937
2019-02-15T00:41:37.953Z,18.22937
2019-02-15T00:41:45.843Z,18.249512
2019-02-15T00:41:53.743Z,18.22937
2019-02-15T00:42:01.691Z,18.22937
2019-02-15T00:42:09.563Z,18.219299
2019-02-15T00:42:17.453Z,18.22937
2019-02-15T00:42:25.335Z,18.22937
2019-02-15T00:42:33.220Z,18.22937
2019-02-15T00:42:41.078Z,18.22937
2019-02-15T00:42:48.962Z,18.219299
2019-02-15T00:42:56.839Z,18.22937
2019-02-15T00:43:04.720Z,18.22937
2019-02-15T00:43:12.598Z,18.219299
2019-02-15T00:43:24.446Z,18.219299
2019-02-15T00:43:32.301Z,18.249512
2019-02-15T00:43:40.196Z,18.219299
2019-02-15T00:43:48.087Z,18.249512
2019-02-15T00:43:55.984Z,18.22937
2019-02-15T00:44:03.869Z,18.22937
2019-02-15T00:44:11.753Z,18.22937
2019-02-15T00:44:19.662Z,18.22937
2019-02-15T00:44:27.546Z,18.22937
2019-02-15T00:44:36.405Z,18.22937
2019-02-15T00:44:44.271Z,18.22937
2019-02-15T00:44:52.169Z,18.219299
2019-02-15T00:45:00.046Z,18.22937
2019-02-15T00:45:07.955Z,18.22937
2019-02-15T00:45:15.831Z,18.219299
2019-02-15T00:45:23.727Z,18.22937
2019-02-15T00:45:31.596Z,18.219299
2019-02-15T00:45:39.467Z,18.219299
2019-02-15T00:45:47.358Z,18.22937
2019-02-15T00:45:55.237Z,18.22937
2019-02-15T00:46:03.117Z,18.22937
2019-02-15T00:46:12.004Z,18.219299
2019-02-15T00:46:20.888Z,18.22937
2019-02-15T00:46:28.769Z,18.219299
2019-02-15T00:46:36.663Z,18.219299
2019-02-15T00:46:44.570Z,18.219299
2019-02-15T00:46:52.445Z,18.22937
2019-02-15T00:47:00.318Z,18.219299
2019-02-15T00:47:08.197Z,18.22937
2019-02-15T00:47:17.051Z,18.219299
2019-02-15T00:47:24.967Z,18.219299
2019-02-15T00:47:32.844Z,18.219299
2019-02-15T00:47:40.761Z,18.22937
2019-02-15T00:47:48.713Z,18.219299
2019-02-15T00:47:56.594Z,18.219299
2019-02-15T00:48:04.469Z,18.22937
2019-02-15T00:48:12.350Z,18.219299
2019-02-15T00:48:20.238Z,18.22937
2019-02-15T00:48:28.137Z,18.219299
2019-02-15T00:48:35.996Z,18.22937
2019-02-15T00:48:43.870Z,18.219299
2019-02-15T00:48:51.755Z,18.219299
2019-02-15T00:48:59.642Z,18.219299
2019-02-15T00:49:08.519Z,18.219299
2019-02-15T00:49:16.400Z,18.22937
2019-02-15T00:49:24.277Z,18.219299
2019-02-15T00:49:33.141Z,18.22937
2019-02-15T00:49:41.032Z,18.22937
2019-02-15T00:49:48.913Z,18.219299
2019-02-15T00:49:57.827Z,18.219299
2019-02-15T00:50:06.760Z,18.219299
2019-02-15T00:50:14.638Z,18.219299
2019-02-15T00:50:22.537Z,18.219299
2019-02-15T00:50:30.422Z,18.199158
2019-02-15T00:50:38.298Z,18.219299
2019-02-15T00:50:46.166Z,18.219299
2019-02-15T00:50:54.038Z,18.219299
2019-02-15T00:51:01.936Z,18.22937
2019-02-15T00:51:10.806Z,18.219299
2019-02-15T00:51:19.702Z,18.22937
2019-02-15T00:51:27.590Z,18.199158
2019-02-15T00:51:35.492Z,18.219299
2019-02-15T00:51:43.360Z,18.219299
2019-02-15T00:51:51.231Z,18.219299
2019-02-15T00:51:59.109Z,18.22937
2019-02-15T00:52:07.017Z,18.219299
2019-02-15T00:52:14.868Z,18.22937
2019-02-15T00:52:22.758Z,18.219299
2019-02-15T00:52:30.653Z,18.219299
2019-02-15T00:52:38.564Z,18.199158
2019-02-15T00:52:46.448Z,18.219299
2019-02-15T00:52:54.336Z,18.219299
2019-02-15T00:53:03.228Z,18.219299
2019-02-15T00:53:12.084Z,18.22937
2019-02-15T00:53:19.965Z,18.219299
2019-02-15T00:53:27.867Z,18.219299
2019-02-15T00:53:36.759Z,18.219299
2019-02-15T00:53:44.654Z,18.219299
2019-02-15T00:53:53.550Z,18.219299
2019-02-15T00:54:01.488Z,18.22937
2019-02-15T00:54:09.376Z,18.219299
2019-02-15T00:54:18.269Z,18.219299
2019-02-15T00:54:26.176Z,18.219299
2019-02-15T00:54:34.070Z,18.219299
2019-02-15T00:54:41.945Z,18.219299
2019-02-15T00:54:49.857Z,18.219299
2019-02-15T00:54:57.786Z,18.199158
2019-02-15T00:55:05.696Z,18.199158
2019-02-15T00:55:13.569Z,18.199158
2019-02-15T00:55:21.455Z,18.219299
2019-02-15T00:55:30.321Z,18.199158
2019-02-15T00:55:38.230Z,18.219299
2019-02-15T00:55:46.096Z,18.219299
2019-02-15T00:55:53.973Z,18.219299
2019-02-15T00:56:01.853Z,18.219299
2019-02-15T00:56:09.738Z,18.199158
2019-02-15T00:56:17.599Z,18.199158
2019-02-15T00:56:25.497Z,18.219299
2019-02-15T00:56:33.357Z,18.219299
2019-02-15T00:56:41.222Z,18.219299
2019-02-15T00:56:49.092Z,18.199158
2019-02-15T00:56:57.978Z,18.199158
2019-02-15T00:57:05.885Z,18.199158
2019-02-15T00:57:13.752Z,18.199158
2019-02-15T00:57:21.648Z,18.179016
2019-02-15T00:57:29.550Z,18.219299
2019-02-15T00:57:38.443Z,18.199158
2019-02-15T00:57:46.317Z,18.199158
2019-02-15T00:57:54.197Z,18.199158
2019-02-15T00:58:02.090Z,18.199158
2019-02-15T00:58:09.958Z,18.199158
2019-02-15T00:58:17.868Z,18.199158
2019-02-15T00:58:25.770Z,18.219299
2019-02-15T00:58:33.664Z,18.179016
2019-02-15T00:58:41.530Z,18.199158
2019-02-15T00:58:49.419Z,18.199158
2019-02-15T00:58:57.301Z,18.219299
2019-02-15T00:59:05.225Z,18.199158
2019-02-15T00:59:13.113Z,18.219299
2019-02-15T00:59:20.971Z,18.219299
2019-02-15T00:59:28.856Z,18.199158
2019-02-15T00:59:36.726Z,18.219299
2019-02-15T00:59:44.584Z,18.179016
2019-02-15T00:59:52.460Z,18.219299
2019-02-15T01:00:01.320Z,18.199158
2019-02-15T01:00:09.181Z,18.219299
2019-02-15T01:00:17.079Z,18.199158
2019-02-15T01:00:24.974Z,18.199158
2019-02-15T01:00:32.846Z,18.199158
2019-02-15T01:00:40.720Z,18.199158
2019-02-15T01:00:49.687Z,18.199158
2019-02-15T01:00:57.495Z,18.199158
2019-02-15T01:01:05.373Z,18.199158
2019-02-15T01:01:13.278Z,18.179016
2019-02-15T01:01:22.198Z,18.179016
2019-02-15T01:01:30.086Z,18.199158
2019-02-15T01:01:37.958Z,18.199158
2019-02-15T01:01:45.850Z,18.199158
2019-02-15T01:01:54.718Z,18.199158
2019-02-15T01:02:02.614Z,18.199158
2019-02-15T01:02:10.515Z,18.199158
2019-02-15T01:02:18.401Z,18.219299
2019-02-15T01:02:26.294Z,18.219299
2019-02-15T01:02:34.164Z,18.199158
2019-02-15T01:02:42.048Z,18.199158
2019-02-15T01:02:49.928Z,18.179016
2019-02-15T01:02:57.825Z,18.199158
2019-02-15T01:03:05.730Z,18.199158
2019-02-15T01:03:13.603Z,18.179016
2019-02-15T01:03:21.488Z,18.199158
2019-02-15T01:03:29.386Z,18.199158
2019-02-15T01:03:37.272Z,18.199158
2019-02-15T01:03:45.168Z,18.199158
2019-02-15T01:03:53.039Z,18.199158
2019-02-15T01:04:00.913Z,18.199158
2019-02-15T01:04:08.782Z,18.199158
2019-02-15T01:04:16.690Z,18.179016
2019-02-15T01:04:24.557Z,18.179016
2019-02-15T01:04:32.419Z,18.199158
2019-02-15T01:04:40.320Z,18.199158
2019-02-15T01:04:48.192Z,18.199158
2019-02-15T01:04:56.095Z,18.179016
2019-02-15T01:05:04.954Z,18.179016
2019-02-15T01:05:12.858Z,18.179016
2019-02-15T01:05:20.759Z,18.199158
2019-02-15T01:05:28.642Z,18.179016
2019-02-15T01:05:36.530Z,18.199158
2019-02-15T01:05:44.430Z,18.199158
2019-02-15T01:05:52.334Z,18.179016
2019-02-15T01:06:00.219Z,18.179016
2019-02-15T01:06:08.116Z,18.179016
2019-02-15T01:06:15.980Z,18.199158
2019-02-15T01:06:23.932Z,18.179016
2019-02-15T01:06:31.868Z,18.199158
2019-02-15T01:06:40.733Z,18.179016
2019-02-15T01:06:49.590Z,18.219299
2019-02-15T01:06:57.464Z,18.199158
2019-02-15T01:07:05.356Z,18.179016
2019-02-15T01:07:13.228Z,18.179016
2019-02-15T01:07:22.093Z,18.179016
2019-02-15T01:07:29.957Z,18.179016
2019-02-15T01:07:37.845Z,18.199158
2019-02-15T01:07:45.727Z,18.179016
2019-02-15T01:07:53.617Z,18.199158
2019-02-15T01:08:01.494Z,18.199158
2019-02-15T01:08:09.356Z,18.199158
2019-02-15T01:08:17.242Z,18.199158
2019-02-15T01:08:25.132Z,18.179016
2019-02-15T01:08:33.018Z,18.179016
2019-02-15T01:08:40.912Z,18.179016
2019-02-15T01:08:48.774Z,18.179016
2019-02-15T01:08:56.665Z,18.179016
2019-02-15T01:09:04.522Z,18.179016
2019-02-15T01:09:12.482Z,18.199158
2019-02-15T01:09:20.349Z,18.199158
2019-02-15T01:09:28.299Z,18.199158
2019-02-15T01:09:36.205Z,18.199158
2019-02-15T01:09:44.073Z,18.179016
2019-02-15T01:09:52.928Z,18.199158
2019-02-15T01:10:00.838Z,18.179016
2019-02-15T01:10:09.729Z,18.179016
2019-02-15T01:10:17.616Z,18.179016
2019-02-15T01:10:25.476Z,18.199158
2019-02-15T01:10:33.395Z,18.199158
2019-02-15T01:10:42.321Z,18.179016
2019-02-15T01:10:50.212Z,18.199158
2019-02-15T01:10:58.114Z,18.199158
2019-02-15T01:11:06.018Z,18.179016
2019-02-15T01:11:13.928Z,18.179016
2019-02-15T01:11:22.806Z,18.199158
2019-02-15T01:11:30.704Z,18.179016
2019-02-15T01:11:38.601Z,18.179016
2019-02-15T01:11:46.484Z,18.179016
2019-02-15T01:11:54.380Z,18.179016
2019-02-15T01:12:02.263Z,18.199158
2019-02-15T01:12:10.136Z,18.179016
2019-02-15T01:12:17.994Z,18.179016
2019-02-15T01:12:25.864Z,18.179016
2019-02-15T01:12:33.749Z,18.179016
2019-02-15T01:12:42.615Z,18.199158
2019-02-15T01:12:50.477Z,18.199158
2019-02-15T01:12:58.344Z,18.179016
2019-02-15T01:13:06.244Z,18.179016
2019-02-15T01:13:14.120Z,18.179016
2019-02-15T01:13:30.721Z,18.179016
2019-02-15T01:13:35.824Z,18.199158
2019-02-15T01:13:44.748Z,18.179016
2019-02-15T01:13:52.614Z,18.168945
2019-02-15T01:14:00.483Z,18.179016
2019-02-15T01:14:08.363Z,18.179016
2019-02-15T01:14:16.254Z,18.179016
2019-02-15T01:14:24.128Z,18.179016
2019-02-15T01:14:32.013Z,18.168945
2019-02-15T01:14:39.896Z,18.179016
2019-02-15T01:14:47.796Z,18.168945
2019-02-15T01:14:55.696Z,18.179016
2019-02-15T01:15:03.576Z,18.179016
2019-02-15T01:15:12.422Z,18.179016
2019-02-15T01:15:20.279Z,18.168945
2019-02-15T01:15:28.186Z,18.179016
2019-02-15T01:15:36.034Z,18.179016
2019-02-15T01:15:43.968Z,18.168945
2019-02-15T01:15:51.811Z,18.179016
2019-02-15T01:15:59.698Z,18.179016
2019-02-15T01:16:07.596Z,18.179016
2019-02-15T01:16:15.478Z,18.179016
2019-02-15T01:16:23.397Z,18.168945
2019-02-15T01:16:31.258Z,18.179016
2019-02-15T01:16:39.160Z,18.199158
2019-02-15T01:16:47.062Z,18.179016
2019-02-15T01:16:55.922Z,18.168945
2019-02-15T01:17:03.798Z,18.199158
2019-02-15T01:17:11.664Z,18.168945
2019-02-15T01:17:19.538Z,18.179016
2019-02-15T01:17:28.427Z,18.179016
2019-02-15T01:17:36.287Z,18.179016
2019-02-15T01:17:44.192Z,18.179016
2019-02-15T01:17:52.105Z,18.179016
2019-02-15T01:18:00.986Z,18.168945
2019-02-15T01:18:08.853Z,18.179016
2019-02-15T01:18:16.704Z,18.179016
2019-02-15T01:18:24.571Z,18.179016
2019-02-15T01:18:32.446Z,18.179016
2019-02-15T01:18:40.320Z,18.179016
2019-02-15T01:18:48.200Z,18.179016
2019-02-15T01:18:56.102Z,18.168945
2019-02-15T01:19:03.994Z,18.179016
2019-02-15T01:19:12.856Z,18.168945
2019-02-15T01:19:20.733Z,18.168945
2019-02-15T01:19:28.594Z,18.168945
2019-02-15T01:19:36.482Z,18.179016
2019-02-15T01:19:44.364Z,18.179016
2019-02-15T01:19:52.262Z,18.179016
2019-02-15T01:20:00.218Z,18.179016
2019-02-15T01:20:08.035Z,18.168945
2019-02-15T01:20:15.916Z,18.168945
2019-02-15T01:20:23.816Z,18.168945
2019-02-15T01:20:31.694Z,18.168945
2019-02-15T01:20:39.610Z,18.148804
2019-02-15T01:20:47.520Z,18.168945
2019-02-15T01:20:56.412Z,18.179016
2019-02-15T01:21:04.273Z,18.179016
2019-02-15T01:21:12.316Z,18.179016
2019-02-15T01:21:20.194Z,18.168945
2019-02-15T01:21:28.114Z,18.168945
2019-02-15T01:21:35.996Z,18.168945
2019-02-15T01:21:43.892Z,18.168945
2019-02-15T01:21:51.755Z,18.168945
2019-02-15T01:21:59.633Z,18.168945
2019-02-15T01:22:07.566Z,18.168945
2019-02-15T01:22:16.438Z,18.168945
2019-02-15T01:22:24.350Z,18.168945
2019-02-15T01:22:32.229Z,18.168945
2019-02-15T01:22:40.098Z,18.168945
2019-02-15T01:22:47.972Z,18.168945
2019-02-15T01:22:55.846Z,18.168945
2019-02-15T01:23:03.741Z,18.179016
2019-02-15T01:23:11.664Z,18.168945
2019-02-15T01:23:19.542Z,18.168945
2019-02-15T01:23:27.434Z,18.168945
2019-02-15T01:23:35.308Z,18.168945
2019-02-15T01:23:43.202Z,18.168945
2019-02-15T01:23:51.084Z,18.168945
2019-02-15T01:23:59.974Z,18.168945
2019-02-15T01:24:07.850Z,18.168945
2019-02-15T01:24:15.737Z,18.168945
2019-02-15T01:24:23.642Z,18.168945
2019-02-15T01:24:31.504Z,18.168945
2019-02-15T01:24:39.372Z,18.168945
2019-02-15T01:24:47.274Z,18.168945
2019-02-15T01:24:55.171Z,18.168945
2019-02-15T01:25:03.028Z,18.168945
2019-02-15T01:25:10.932Z,18.168945
2019-02-15T01:25:18.796Z,18.168945
2019-02-15T01:25:26.686Z,18.168945
2019-02-15T01:25:34.568Z,18.148804
2019-02-15T01:25:42.468Z,18.168945
2019-02-15T01:25:50.352Z,18.148804
2019-02-15T01:25:58.224Z,18.148804
2019-02-15T01:26:06.114Z,18.168945
2019-02-15T01:26:13.976Z,18.168945
2019-02-15T01:26:21.844Z,18.168945
2019-02-15T01:26:29.779Z,18.168945
2019-02-15T01:26:37.658Z,18.148804
2019-02-15T01:26:45.584Z,18.148804
2019-02-15T01:26:53.461Z,18.148804
2019-02-15T01:27:01.347Z,18.168945
2019-02-15T01:27:10.236Z,18.168945
2019-02-15T01:27:18.140Z,18.168945
2019-02-15T01:27:26.018Z,18.148804
2019-02-15T01:27:33.904Z,18.168945
2019-02-15T01:27:41.832Z,18.168945
2019-02-15T01:27:49.699Z,18.168945
2019-02-15T01:27:57.570Z,18.168945
2019-02-15T01:28:05.467Z,18.168945
2019-02-15T01:28:13.390Z,18.168945
2019-02-15T01:28:21.269Z,18.168945
2019-02-15T01:28:29.144Z,18.168945
2019-02-15T01:28:37.056Z,18.148804
2019-02-15T01:28:44.945Z,18.148804
2019-02-15T01:28:53.831Z,18.148804
2019-02-15T01:29:02.702Z,18.148804
2019-02-15T01:29:10.561Z,18.168945
2019-02-15T01:29:18.449Z,18.168945
2019-02-15T01:29:26.322Z,18.168945
2019-02-15T01:29:34.201Z,18.148804
2019-02-15T01:29:42.110Z,18.148804
2019-02-15T01:29:51.988Z,18.168945
2019-02-15T01:29:59.875Z,18.148804
2019-02-15T01:30:07.792Z,18.138733
2019-02-15T01:30:15.675Z,18.168945
2019-02-15T01:30:23.557Z,18.168945
2019-02-15T01:30:31.527Z,18.168945
2019-02-15T01:30:39.392Z,18.168945
2019-02-15T01:30:47.289Z,18.148804
2019-02-15T01:30:55.176Z,18.168945
2019-02-15T01:31:03.047Z,18.168945
2019-02-15T01:31:10.910Z,18.148804
2019-02-15T01:31:18.787Z,18.168945
2019-02-15T01:31:26.668Z,18.148804
2019-02-15T01:31:34.545Z,18.148804
2019-02-15T01:31:42.448Z,18.148804
2019-02-15T01:31:50.334Z,18.148804